Time;durP1;ratioP1;P1;durP2;ratioP2;P2;SDS_P1;SDS_P2;PMS_P1;PMS_P2;Temp;Humidity;BMP_temperature;BMP_pressure;BME280_temperature;BME280_humidity;BME280_pressure;Samples;Min_cycle;Max_cycle;Signal;HPM_P1;HPM_P2
2023/01/05 00:01:45;;;;;;;;;;;;;;;15.78;55.29;100675.19;4961593;28;7120;-73
2023/01/05 00:04:11;;;;;;;;;;;;;;;15.76;55.39;100672.53;4963529;28;6956;-73
2023/01/05 00:06:38;;;;;;;;;;;;;;;15.78;55.28;100670.00;4982311;28;7154;-72
2023/01/05 00:09:06;;;;;;;;;;;;;;;15.79;55.45;100689.84;4966185;28;7777;-73
2023/01/05 00:22:51;;;;;;;;;;;;;;;15.72;55.37;100706.88;4960579;28;6788;-73
2023/01/05 00:25:24;;;;;;;;;;;;;;;15.71;55.56;100709.41;4993919;28;6982;-72
2023/01/05 00:27:52;;;;;;;;;;;;;;;15.73;54.86;100698.28;4969329;28;6871;-73
2023/01/05 00:30:49;;;;;;;;;;;;;;;15.74;55.34;100699.16;4993711;28;6800;-72
2023/01/05 00:33:16;;;;;;;;;;;;;;;15.74;54.99;100704.31;4984322;28;7884;-72
2023/01/05 00:35:42;;;;;;;;;;;;;;;15.72;55.19;100705.97;4959240;28;6804;-72
2023/01/05 00:38:09;;;;;;;;;;;;;;;15.71;55.65;100702.53;4988539;28;6775;-73
2023/01/05 00:40:35;;;;;;;;;;;;;;;15.72;55.20;100695.63;4973191;28;6864;-73
2023/01/05 00:43:01;;;;;;;;;;;;;;;15.72;55.36;100691.38;4956419;28;6840;-72
2023/01/05 00:45:26;;;;;;;;;;;;;;;15.72;54.91;100695.63;4985346;28;6784;-73
2023/01/05 00:47:53;;;;;;;;;;;;;;;15.71;55.10;100694.78;4953413;28;6927;-73
2023/01/05 00:50:21;;;;;;;;;;;;;;;15.72;55.19;100708.56;4953598;28;7073;-73
2023/01/05 00:52:47;;;;;;;;;;;;;;;15.73;54.94;100707.72;4953762;28;6987;-72
2023/01/05 00:55:13;;;;;;;;;;;;;;;15.72;55.21;100691.38;4944372;28;7042;-72
2023/01/05 00:57:39;;;;;;;;;;;;;;;15.71;55.55;100689.63;4978593;28;6792;-72
2023/01/05 01:00:11;;;;;;;;;;;;;;;15.72;55.25;100691.38;4952506;28;6827;-72
2023/01/05 01:02:38;;;;;;;;;;;;;;;15.72;55.22;100696.53;4983671;28;11621;-72
2023/01/05 01:05:04;;;;;;;;;;;;;;;15.73;55.44;100692.22;4976360;28;7158;-73
2023/01/05 01:07:30;;;;;;;;;;;;;;;15.72;55.69;100691.38;4960464;28;6796;-72
2023/01/05 01:09:56;;;;;;;;;;;;;;;15.71;55.03;100692.19;4962335;28;7027;-72
2023/01/05 01:12:21;;;;;;;;;;;;;;;15.70;55.64;100680.13;4990509;28;7173;-72
2023/01/05 01:14:48;;;;;;;;;;;;;;;15.70;55.42;100682.69;4956361;28;7045;-72
2023/01/05 01:17:15;;;;;;;;;;;;;;;15.68;55.83;100685.22;4970823;28;6784;-72
2023/01/05 01:19:41;;;;;;;;;;;;;;;15.71;55.46;100662.88;4958158;28;7023;-72
2023/01/05 01:22:07;;;;;;;;;;;;;;;15.69;55.89;100696.41;4972370;28;6970;-72
2023/01/05 01:24:32;;;;;;;;;;;;;;;15.69;55.15;100691.25;4957619;28;6772;-73
2023/01/05 01:26:58;;;;;;;;;;;;;;;15.70;55.22;100693.03;4987931;28;6776;-72
2023/01/05 01:29:24;;;;;;;;;;;;;;;15.68;55.31;100694.66;4961814;28;6844;-73
2023/01/05 01:31:52;;;;;;;;;;;;;;;15.69;55.39;100694.72;4958271;28;6987;-72
2023/01/05 01:34:17;;;;;;;;;;;;;;;15.68;55.38;100703.31;4958611;28;7221;-72
2023/01/05 01:36:43;;;;;;;;;;;;;;;15.63;55.19;100693.66;4959456;28;6788;-72
2023/01/05 01:39:10;;;;;;;;;;;;;;;15.55;55.37;100707.19;4960016;28;6940;-72
2023/01/05 01:41:36;;;;;;;;;;;;;;;15.52;55.50;100708.81;4957973;28;6792;-72
2023/01/05 01:44:02;;;;;;;;;;;;;;;15.53;55.26;100720.88;4954788;28;7005;-72
2023/01/05 01:46:28;;;;;;;;;;;;;;;15.52;55.71;100725.19;4959416;28;6804;-73
2023/01/05 01:49:00;;;;;;;;;;;;;;;15.53;55.89;100723.47;4956779;28;6796;-73
2023/01/05 01:51:39;;;;;;;;;;;;;;;15.52;55.12;100714.84;4968387;28;8952;-72
2023/01/05 01:54:10;;;;;;;;;;;;;;;15.49;55.24;100711.28;4962929;28;7158;-72
2023/01/05 01:56:54;;;;;;;;;;;;;;;15.51;55.53;100732.88;4973693;28;6867;-73
2023/01/05 01:59:22;;;;;;;;;;;;;;;15.48;55.89;100745.69;4943716;28;6857;-72
2023/01/05 02:01:53;;;;;;;;;;;;;;;15.46;55.86;100747.38;4957383;28;7099;-72
2023/01/05 02:04:20;;;;;;;;;;;;;;;15.44;55.18;100736.06;4961000;28;6991;-73
2023/01/05 02:06:48;;;;;;;;;;;;;;;15.40;55.82;100725.66;4960727;28;7184;-72
2023/01/05 02:09:14;;;;;;;;;;;;;;;15.33;55.03;100726.25;4986489;28;7107;-73
2023/01/05 02:11:57;;;;;;;;;;;;;;;15.26;55.30;100729.50;4976712;28;7157;-72
2023/01/05 02:14:51;;;;;;;;;;;;;;;15.21;55.85;100731.91;4962815;28;7310;-72
2023/01/05 02:17:34;;;;;;;;;;;;;;;15.14;55.57;100735.97;4984971;28;6804;-72
2023/01/05 02:20:59;;;;;;;;;;;;;;;15.07;56.01;100734.03;4962334;28;6996;-72
2023/01/05 02:24:03;;;;;;;;;;;;;;;15.00;55.34;100739.78;4980862;28;7206;-72
2023/01/05 02:27:16;;;;;;;;;;;;;;;14.99;55.91;100748.34;4986293;28;7145;-72
2023/01/05 02:30:26;;;;;;;;;;;;;;;15.04;56.36;100749.38;4959339;28;6819;-72
2023/01/05 02:33:28;;;;;;;;;;;;;;;15.11;55.78;100760.78;4974629;28;11100;-72
2023/01/05 02:36:22;;;;;;;;;;;;;;;15.14;55.88;100748.88;4959809;28;6836;-73
2023/01/05 02:39:14;;;;;;;;;;;;;;;15.23;55.73;100753.50;4960800;28;6816;-73
2023/01/05 02:42:00;;;;;;;;;;;;;;;15.28;55.78;100751.06;4961088;28;7036;-72
2023/01/05 02:44:31;;;;;;;;;;;;;;;15.30;56.34;100762.31;4984989;28;6808;-72
2023/01/05 02:47:02;;;;;;;;;;;;;;;15.35;55.94;100755.59;4956507;28;6978;-72
2023/01/05 02:49:35;;;;;;;;;;;;;;;15.39;55.54;100764.34;4958946;28;6860;-72
2023/01/05 02:52:05;;;;;;;;;;;;;;;15.41;55.46;100742.91;4958576;28;6827;-73
2023/01/05 02:54:39;;;;;;;;;;;;;;;15.45;55.64;100753.31;4954297;28;7033;-72
2023/01/05 02:57:16;;;;;;;;;;;;;;;15.46;55.14;100749.94;4959272;28;6820;-72
2023/01/05 02:59:48;;;;;;;;;;;;;;;15.49;55.29;100757.78;4959653;28;6873;-73
2023/01/05 03:02:23;;;;;;;;;;;;;;;15.52;55.44;100755.28;4960326;28;6796;-72
2023/01/05 03:05:11;;;;;;;;;;;;;;;15.52;55.13;100756.19;4959452;28;6988;-72
2023/01/05 03:07:42;;;;;;;;;;;;;;;15.54;55.39;100740.72;4973710;28;6959;-72
2023/01/05 03:15:57;;;;;;;;;;;;;;;15.53;54.85;100752.78;4980192;28;7638;-72
2023/01/05 03:18:25;;;;;;;;;;;;;;;15.54;54.83;100748.47;4977984;28;7011;-72
2023/01/05 03:20:54;;;;;;;;;;;;;;;15.56;54.88;100752.00;4970815;28;6976;-73
2023/01/05 03:38:13;;;;;;;;;;;;;;;15.52;54.90;100755.28;4973448;28;6801;-73
2023/01/05 03:40:41;;;;;;;;;;;;;;;15.52;54.69;100761.34;4957770;28;7256;-73
2023/01/05 03:43:07;;;;;;;;;;;;;;;15.52;54.83;100760.47;4955241;28;6829;-72
2023/01/05 03:45:40;;;;;;;;;;;;;;;15.53;55.07;100773.44;4943890;28;7044;-72
2023/01/05 03:48:06;;;;;;;;;;;;;;;15.53;54.80;100767.38;4982240;28;6804;-72
2023/01/05 03:50:34;;;;;;;;;;;;;;;15.54;54.88;100772.63;4986566;28;6975;-72
2023/01/05 03:53:00;;;;;;;;;;;;;;;15.55;54.87;100771.78;4951877;28;7237;-72
2023/01/05 03:55:25;;;;;;;;;;;;;;;15.57;54.58;100777.00;4965649;28;6776;-73
2023/01/05 03:57:51;;;;;;;;;;;;;;;15.60;54.58;100776.25;4958058;28;6775;-73
2023/01/05 04:00:17;;;;;;;;;;;;;;;15.60;54.39;100779.69;4963122;28;7038;-72
2023/01/05 04:02:43;;;;;;;;;;;;;;;15.60;54.52;100774.53;4960888;28;6792;-73
2023/01/05 04:05:08;;;;;;;;;;;;;;;15.62;54.62;100779.75;4960863;28;7224;-72
2023/01/05 04:07:34;;;;;;;;;;;;;;;15.62;54.46;100772.84;4993629;28;6788;-72
2023/01/05 04:10:00;;;;;;;;;;;;;;;15.60;54.43;100784.00;4964060;28;7557;-72
2023/01/05 04:12:26;;;;;;;;;;;;;;;15.60;54.67;100777.09;4961813;28;6940;-72
2023/01/05 04:14:51;;;;;;;;;;;;;;;15.60;54.35;100774.53;4966412;28;6780;-73
2023/01/05 04:17:17;;;;;;;;;;;;;;;15.61;54.40;100786.59;4963255;28;6784;-72
2023/01/05 04:19:42;;;;;;;;;;;;;;;15.62;54.39;100779.75;4981809;28;6784;-72
2023/01/05 04:22:08;;;;;;;;;;;;;;;15.61;54.51;100781.44;4962895;28;6765;-72
2023/01/05 04:24:33;;;;;;;;;;;;;;;15.62;54.12;100777.16;4962683;28;7506;-72
2023/01/05 04:26:59;;;;;;;;;;;;;;;15.61;53.94;100775.41;4956677;28;6844;-72
2023/01/05 04:29:25;;;;;;;;;;;;;;;15.57;54.34;100782.19;4958129;28;6987;-72
2023/01/05 04:31:50;;;;;;;;;;;;;;;15.54;54.24;100780.34;4956056;28;7885;-72
2023/01/05 04:34:16;;;;;;;;;;;;;;;15.52;54.48;100784.59;4973268;28;6776;-72
2023/01/05 04:36:41;;;;;;;;;;;;;;;15.48;54.54;100774.13;4965632;28;6788;-72
2023/01/05 04:39:07;;;;;;;;;;;;;;;15.44;54.91;100774.81;4958017;28;7720;-73
2023/01/05 04:41:33;;;;;;;;;;;;;;;15.39;54.49;100785.00;4962887;28;6780;-72
2023/01/05 04:43:58;;;;;;;;;;;;;;;15.34;55.37;100795.16;4980536;28;6951;-72
2023/01/05 04:46:24;;;;;;;;;;;;;;;15.28;55.06;100789.81;4962058;28;6780;-72
2023/01/05 04:48:49;;;;;;;;;;;;;;;15.19;55.28;100790.34;4995209;28;6993;-72
2023/01/05 04:51:15;;;;;;;;;;;;;;;15.12;55.61;100786.66;4956547;28;7511;-72
2023/01/05 04:53:41;;;;;;;;;;;;;;;15.05;55.62;100789.84;4958124;28;6788;-73
2023/01/05 04:56:09;;;;;;;;;;;;;;;15.00;55.91;100788.81;4956744;28;7117;-73
2023/01/05 04:58:35;;;;;;;;;;;;;;;14.95;56.16;100791.25;4954728;28;8127;-72
2023/01/05 05:01:01;;;;;;;;;;;;;;;14.93;56.08;100789.41;4989450;28;6962;-72
2023/01/05 05:03:26;;;;;;;;;;;;;;;14.91;55.94;100798.81;4949251;28;7203;-72
2023/01/05 05:05:52;;;;;;;;;;;;;;;14.91;56.47;100803.97;4958032;28;6752;-73
2023/01/05 05:08:18;;;;;;;;;;;;;;;14.92;56.27;100803.16;4960043;28;6956;-73
2023/01/05 05:10:43;;;;;;;;;;;;;;;14.94;56.92;100796.34;4974347;28;6971;-73
2023/01/05 05:13:09;;;;;;;;;;;;;;;14.96;56.97;100799.84;4958965;28;6780;-73
2023/01/05 05:15:35;;;;;;;;;;;;;;;14.99;56.19;100794.81;4990333;28;6938;-72
2023/01/05 05:18:00;;;;;;;;;;;;;;;15.00;56.40;100800.00;4952198;28;6780;-72
2023/01/05 05:20:26;;;;;;;;;;;;;;;15.02;56.71;100805.25;4983731;28;6764;-72
2023/01/05 05:22:51;;;;;;;;;;;;;;;15.04;57.03;100802.72;4976254;28;6975;-72
2023/01/05 05:25:17;;;;;;;;;;;;;;;15.06;56.35;100806.22;4979339;28;6940;-73
2023/01/05 05:27:43;;;;;;;;;;;;;;;15.06;56.58;100807.09;4943559;28;6960;-73
2023/01/05 05:30:09;;;;;;;;;;;;;;;15.08;56.61;100795.16;4977863;28;6955;-72
2023/01/05 05:32:34;;;;;;;;;;;;;;;15.09;56.68;100796.00;4961568;28;11085;-73
2023/01/05 05:35:00;;;;;;;;;;;;;;;15.09;56.01;100796.00;4960636;28;7049;-73
2023/01/05 05:37:26;;;;;;;;;;;;;;;15.09;56.04;100802.06;4978932;28;7109;-73
2023/01/05 05:39:51;;;;;;;;;;;;;;;15.09;56.61;100806.34;4988335;28;7082;-72
2023/01/05 05:42:17;;;;;;;;;;;;;;;15.10;56.33;100813.25;4960247;28;7007;-72
2023/01/05 05:44:42;;;;;;;;;;;;;;;15.11;56.43;100810.72;4957011;28;6780;-72
2023/01/05 05:47:08;;;;;;;;;;;;;;;15.13;56.82;100826.28;4980705;28;6985;-72
2023/01/05 05:49:34;;;;;;;;;;;;;;;15.13;56.53;100818.53;4963989;28;6848;-73
2023/01/05 05:51:59;;;;;;;;;;;;;;;15.14;56.54;100826.31;4973807;28;7409;-73
2023/01/05 05:54:25;;;;;;;;;;;;;;;15.14;56.85;100828.91;4971501;28;6871;-73
2023/01/05 05:56:51;;;;;;;;;;;;;;;15.15;56.72;100832.38;4962289;28;6834;-73
2023/01/05 05:59:16;;;;;;;;;;;;;;;15.14;55.96;100828.91;4948049;28;6796;-72
2023/01/05 06:01:42;;;;;;;;;;;;;;;15.14;56.23;100835.78;4954366;28;6788;-73
2023/01/05 06:04:07;;;;;;;;;;;;;;;15.14;56.13;100833.22;4971151;28;6935;-72
2023/01/05 06:06:33;;;;;;;;;;;;;;;15.11;56.13;100825.31;4947701;28;6840;-72
2023/01/05 06:08:59;;;;;;;;;;;;;;;15.12;56.17;100834.84;4974418;28;6775;-72
2023/01/05 06:11:24;;;;;;;;;;;;;;;15.11;56.16;100840.81;4944876;28;6776;-73
2023/01/05 06:13:50;;;;;;;;;;;;;;;15.12;56.14;100835.72;4954170;28;7105;-73
2023/01/05 06:16:15;;;;;;;;;;;;;;;15.13;56.00;100845.22;4946326;28;7198;-73
2023/01/05 06:18:41;;;;;;;;;;;;;;;15.15;56.57;100840.13;4978066;28;6788;-72
2023/01/05 06:21:07;;;;;;;;;;;;;;;15.18;56.03;100852.28;4944240;28;6768;-73
2023/01/05 06:23:33;;;;;;;;;;;;;;;15.15;56.26;100853.03;4948450;28;6961;-73
2023/01/05 06:25:59;;;;;;;;;;;;;;;15.17;56.22;100855.69;4978187;28;6779;-73
2023/01/05 06:28:24;;;;;;;;;;;;;;;15.18;55.99;100849.69;4978435;28;6772;-72
2023/01/05 06:30:50;;;;;;;;;;;;;;;15.18;56.24;100863.47;4947079;28;6836;-73
2023/01/05 06:33:16;;;;;;;;;;;;;;;15.20;56.14;100863.53;4956445;28;7111;-72
2023/01/05 06:35:41;;;;;;;;;;;;;;;15.20;56.14;100860.94;4965090;28;7451;-73
2023/01/05 06:38:09;;;;;;;;;;;;;;;15.21;55.99;100862.69;4956233;28;6982;-73
2023/01/05 06:40:35;;;;;;;;;;;;;;;15.24;56.23;100873.13;4964936;28;6986;-72
2023/01/05 06:43:01;;;;;;;;;;;;;;;15.24;55.67;100879.19;4955711;28;7820;-73
2023/01/05 06:45:27;;;;;;;;;;;;;;;15.26;56.19;100871.50;4976971;28;7205;-73
2023/01/05 06:47:52;;;;;;;;;;;;;;;15.27;55.63;100878.44;4961516;28;6927;-72
2023/01/05 06:50:18;;;;;;;;;;;;;;;15.27;55.83;100881.88;4960342;28;7083;-73
2023/01/05 06:52:43;;;;;;;;;;;;;;;15.28;56.42;100891.38;4975190;28;6944;-73
2023/01/05 06:55:11;;;;;;;;;;;;;;;15.31;55.90;100889.75;4960489;28;6768;-73
2023/01/05 06:57:38;;;;;;;;;;;;;;;15.33;55.47;100896.72;4967985;28;9000;-73
2023/01/05 07:00:08;;;;;;;;;;;;;;;15.35;55.73;100891.59;4964041;28;8306;-73
2023/01/05 07:02:33;;;;;;;;;;;;;;;15.35;55.46;100892.47;4960445;28;6784;-73
2023/01/05 07:05:01;;;;;;;;;;;;;;;15.38;55.60;100891.72;4977228;28;6769;-73
2023/01/05 07:07:27;;;;;;;;;;;;;;;15.40;55.15;100898.69;4972192;28;6780;-72
2023/01/05 07:09:53;;;;;;;;;;;;;;;15.42;55.17;100896.19;4962849;28;6780;-73
2023/01/05 07:12:19;;;;;;;;;;;;;;;15.41;55.64;100899.59;4954682;28;6964;-73
2023/01/05 07:14:44;;;;;;;;;;;;;;;15.43;55.28;100908.28;4992899;28;6946;-73
2023/01/05 07:17:13;;;;;;;;;;;;;;;15.43;55.40;100913.44;4952065;28;6944;-73
2023/01/05 07:19:39;;;;;;;;;;;;;;;15.44;55.17;100925.53;4986455;28;6845;-73
2023/01/05 07:22:05;;;;;;;;;;;;;;;15.44;55.36;100915.19;4956455;28;6951;-73
2023/01/05 07:24:31;;;;;;;;;;;;;;;15.45;54.92;100921.22;4960050;28;6788;-73
2023/01/05 07:26:59;;;;;;;;;;;;;;;15.46;55.22;100925.59;4989273;28;6947;-73
2023/01/05 07:29:25;;;;;;;;;;;;;;;15.46;55.39;100920.41;4966848;28;7389;-73
2023/01/05 07:31:51;;;;;;;;;;;;;;;15.46;55.34;100915.25;4962935;28;7191;-73
2023/01/05 07:34:18;;;;;;;;;;;;;;;15.46;54.70;100920.41;4949571;28;6983;-73
2023/01/05 07:36:44;;;;;;;;;;;;;;;15.46;54.70;100917.84;4964898;28;6979;-73
2023/01/05 07:39:09;;;;;;;;;;;;;;;15.47;54.95;100919.59;4963135;28;6780;-73
2023/01/05 07:41:35;;;;;;;;;;;;;;;15.47;55.42;100917.88;4997056;28;6862;-73
2023/01/05 07:44:00;;;;;;;;;;;;;;;15.48;55.02;100917.03;4966938;28;7106;-73
2023/01/05 07:46:26;;;;;;;;;;;;;;;15.49;55.02;100917.94;4960246;28;6811;-73
2023/01/05 07:48:52;;;;;;;;;;;;;;;15.49;54.94;100928.28;4977459;28;6856;-73
2023/01/05 07:51:17;;;;;;;;;;;;;;;15.48;55.19;100935.13;4955690;28;6784;-73
2023/01/05 07:53:43;;;;;;;;;;;;;;;15.48;54.84;100929.09;4946650;28;6804;-73
2023/01/05 07:56:11;;;;;;;;;;;;;;;15.47;55.15;100928.19;4945904;28;7135;-73
2023/01/05 07:58:37;;;;;;;;;;;;;;;15.48;54.33;100944.59;4959086;28;6804;-73
2023/01/05 08:01:06;;;;;;;;;;;;;;;15.48;55.41;100949.75;4941215;28;7183;-73
2023/01/05 08:03:31;;;;;;;;;;;;;;;15.48;55.33;100953.22;4957419;28;6852;-73
2023/01/05 08:06:01;;;;;;;;;;;;;;;15.49;55.13;100956.69;4935096;28;7327;-73
2023/01/05 08:08:27;;;;;;;;;;;;;;;15.47;54.86;100948.88;4950262;28;6997;-72
2023/01/05 08:10:53;;;;;;;;;;;;;;;15.48;55.07;100960.09;4956579;28;6776;-73
2023/01/05 08:16:03;;;;;;;;;;;;;;;15.49;54.53;100960.13;4943415;28;6812;-72
2023/01/05 08:18:28;;;;;;;;;;;;;;;15.52;55.07;100961.94;4943953;28;6983;-73
2023/01/05 08:20:59;;;;;;;;;;;;;;;15.52;55.23;100967.13;4943868;28;6768;-73
2023/01/05 08:23:26;;;;;;;;;;;;;;;15.52;54.57;100962.84;4958511;28;7128;-72
2023/01/05 08:25:53;;;;;;;;;;;;;;;15.55;54.46;100967.25;4944914;28;6789;-73
2023/01/05 08:28:19;;;;;;;;;;;;;;;15.55;54.43;100964.69;4936631;28;7054;-73
2023/01/05 08:30:45;;;;;;;;;;;;;;;15.57;54.39;100963.00;4956374;28;6776;-73
2023/01/05 08:33:10;;;;;;;;;;;;;;;15.59;54.69;100963.06;4957624;28;6960;-72
2023/01/05 08:35:41;;;;;;;;;;;;;;;15.59;54.45;100963.06;4961701;28;7059;-72
2023/01/05 08:38:07;;;;;;;;;;;;;;;15.59;54.57;100975.97;4959596;28;7582;-73
2023/01/05 08:40:35;;;;;;;;;;;;;;;15.58;54.85;100972.53;4952631;28;6816;-72
2023/01/05 08:43:00;;;;;;;;;;;;;;;15.57;54.68;100975.94;4960296;28;6860;-73
2023/01/05 08:45:26;;;;;;;;;;;;;;;15.58;54.97;100977.69;4956268;28;6940;-73
2023/01/05 08:47:51;;;;;;;;;;;;;;;15.60;54.38;100976.03;4952569;28;7078;-73
2023/01/05 08:50:17;;;;;;;;;;;;;;;15.62;54.59;100973.53;4939721;28;7183;-73
2023/01/05 08:52:43;;;;;;;;;;;;;;;15.62;54.63;100979.56;4974321;28;7295;-73
2023/01/05 08:55:08;;;;;;;;;;;;;;;15.64;54.32;100988.22;4984249;28;6772;-73
2023/01/05 08:57:34;;;;;;;;;;;;;;;15.65;54.83;100977.09;4965345;28;6792;-73
2023/01/05 09:00:00;;;;;;;;;;;;;;;15.67;54.93;100982.31;4959971;28;6980;-73
2023/01/05 09:02:25;;;;;;;;;;;;;;;15.68;54.79;100995.28;4958195;28;6977;-73
2023/01/05 09:04:51;;;;;;;;;;;;;;;15.72;54.54;100990.22;4970999;28;7091;-73
2023/01/05 09:07:17;;;;;;;;;;;;;;;15.73;54.67;100992.88;4939857;28;6963;-73
2023/01/05 09:09:43;;;;;;;;;;;;;;;15.75;54.28;101000.69;4972749;28;6780;-73
2023/01/05 09:12:08;;;;;;;;;;;;;;;15.76;54.28;101003.31;4970428;28;6949;-74
2023/01/05 09:14:34;;;;;;;;;;;;;;;15.78;54.41;101006.81;4924721;28;7195;-72
2023/01/05 09:17:00;;;;;;;;;;;;;;;15.80;54.32;101009.47;4947459;28;7114;-72
2023/01/05 09:19:26;;;;;;;;;;;;;;;15.83;53.90;101014.75;4968060;28;6800;-73
2023/01/05 09:21:52;;;;;;;;;;;;;;;15.87;54.16;101015.75;4946393;28;7718;-73
2023/01/05 09:24:18;;;;;;;;;;;;;;;15.87;54.17;101016.63;4928530;28;7131;-73
2023/01/05 09:26:44;;;;;;;;;;;;;;;15.90;54.34;101014.19;4940120;28;7256;-73
2023/01/05 09:29:11;;;;;;;;;;;;;;;15.91;53.96;101023.69;4970832;28;7105;-73
2023/01/05 09:31:38;;;;;;;;;;;;;;;15.94;53.98;101017.75;4954304;28;6788;-72
2023/01/05 09:34:04;;;;;;;;;;;;;;;15.95;54.12;101017.81;4979668;28;6864;-73
2023/01/05 09:36:31;;;;;;;;;;;;;;;15.99;54.30;101025.69;4958510;28;6772;-72
2023/01/05 09:38:57;;;;;;;;;;;;;;;16.02;53.82;101025.78;4960102;28;7037;-73
2023/01/05 09:41:34;;;;;;;;;;;;;;;16.03;53.85;101035.28;4961422;28;7203;-73
2023/01/05 09:44:13;;;;;;;;;;;;;;;16.05;53.46;101041.44;4964335;28;7015;-72
2023/01/05 09:46:45;;;;;;;;;;;;;;;16.06;53.87;101045.78;4958156;28;6804;-73
2023/01/05 09:49:18;;;;;;;;;;;;;;;16.09;53.51;101053.63;4981413;28;6992;-73
2023/01/05 09:51:44;;;;;;;;;;;;;;;16.09;53.84;101058.78;4966423;28;6867;-73
2023/01/05 09:54:17;;;;;;;;;;;;;;;16.15;53.68;101060.72;4958134;28;6860;-72
2023/01/05 09:56:48;;;;;;;;;;;;;;;16.22;53.82;101058.41;4959707;28;7011;-73
2023/01/05 09:59:18;;;;;;;;;;;;;;;16.27;53.22;101057.69;4958750;28;7014;-72
2023/01/05 10:01:47;;;;;;;;;;;;;;;16.35;53.35;101061.44;4956701;28;6848;-72
2023/01/05 10:04:23;;;;;;;;;;;;;;;16.42;52.94;101068.59;4977902;28;6951;-73
2023/01/05 10:06:56;;;;;;;;;;;;;;;16.48;52.96;101066.19;4997705;28;7007;-72
2023/01/05 10:09:33;;;;;;;;;;;;;;;16.54;52.69;101067.25;4993032;28;7991;-72
2023/01/05 10:15:20;;;;;;;;;;;;;;;16.66;52.56;101067.66;4962062;28;6788;-72
2023/01/05 10:17:46;;;;;;;;;;;;;;;16.71;52.36;101063.53;4965992;28;6865;-73
2023/01/05 10:20:47;;;;;;;;;;;;;;;16.75;52.11;101067.06;4966997;28;7119;-73
2023/01/05 10:23:28;;;;;;;;;;;;;;;16.78;52.41;101062.88;4961322;28;6800;-72
2023/01/05 10:26:45;;;;;;;;;;;;;;;16.82;51.98;101057.81;4959004;28;6815;-72
2023/01/05 10:29:46;;;;;;;;;;;;;;;16.84;52.20;101059.59;4963649;28;6880;-73
2023/01/05 10:32:39;;;;;;;;;;;;;;;16.92;52.50;101062.47;4936148;28;7090;-72
2023/01/05 10:35:43;;;;;;;;;;;;;;;17.05;52.38;101068.97;4948243;28;6991;-72
2023/01/05 10:38:30;;;;;;;;;;;;;;;17.29;52.44;101070.53;4958128;28;7016;-73
2023/01/05 10:41:37;;;;;;;;;;;;;;;17.58;51.79;101074.03;4979526;28;7053;-73
2023/01/05 10:44:58;;;;;;;;;;;;;;;18.02;50.59;101070.97;4941927;28;6816;-73
2023/01/05 10:47:28;;;;;;;;;;;;;;;18.41;50.67;101078.97;4940962;28;7703;-73
2023/01/05 10:49:54;;;;;;;;;;;;;;;18.67;50.40;101083.94;4978361;28;6949;-73
2023/01/05 10:52:22;;;;;;;;;;;;;;;18.77;49.95;101082.44;4947845;28;6780;-73
2023/01/05 10:55:00;;;;;;;;;;;;;;;18.80;49.91;101078.22;4977611;28;6792;-74
2023/01/05 10:57:29;;;;;;;;;;;;;;;18.80;48.58;101087.72;4958809;28;6985;-73
2023/01/05 11:00:13;;;;;;;;;;;;;;;18.77;48.81;101093.69;4950645;28;7004;-73
2023/01/05 11:02:49;;;;;;;;;;;;;;;18.66;48.84;101084.78;4957670;28;11682;-73
2023/01/05 11:05:33;;;;;;;;;;;;;;;18.55;48.84;101094.91;4992182;28;6846;-72
2023/01/05 11:08:15;;;;;;;;;;;;;;;18.40;49.05;101087.59;4975859;28;6999;-73
2023/01/05 11:11:11;;;;;;;;;;;;;;;18.23;49.04;101085.41;4960877;28;6820;-72
2023/01/05 11:13:41;;;;;;;;;;;;;;;18.08;48.58;101084.97;4959474;28;6820;-72
2023/01/05 11:16:26;;;;;;;;;;;;;;;18.04;49.24;101084.88;4990119;28;6876;-73
2023/01/05 11:19:17;;;;;;;;;;;;;;;18.12;48.86;101076.44;4976001;28;6808;-73
2023/01/05 11:21:45;;;;;;;;;;;;;;;18.10;48.40;101079.00;4979904;28;7171;-72
2023/01/05 11:24:22;;;;;;;;;;;;;;;18.17;48.92;101080.03;4983204;28;6931;-73
2023/01/05 11:27:22;;;;;;;;;;;;;;;18.15;48.54;101087.75;4957892;28;7029;-73
2023/01/05 11:30:15;;;;;;;;;;;;;;;18.01;48.27;101084.78;4974861;28;7015;-72
2023/01/05 11:32:43;;;;;;;;;;;;;;;17.88;48.20;101078.34;4955241;28;11775;-73
2023/01/05 11:35:31;;;;;;;;;;;;;;;17.76;48.37;101083.16;4964286;28;6796;-72
2023/01/05 11:37:59;;;;;;;;;;;;;;;17.76;48.67;101083.16;4980703;28;8075;-73
2023/01/05 11:40:30;;;;;;;;;;;;;;;17.86;49.17;101087.78;4990012;28;6796;-73
2023/01/05 11:42:58;;;;;;;;;;;;;;;17.94;48.18;101084.53;4991137;28;6820;-72
2023/01/05 11:45:36;;;;;;;;;;;;;;;17.99;48.91;101075.19;4981818;28;7028;-73
2023/01/05 11:48:07;;;;;;;;;;;;;;;17.98;48.37;101089.00;4995137;28;7483;-73
2023/01/05 11:50:48;;;;;;;;;;;;;;;17.91;48.87;101091.41;4980490;28;7114;-73
2023/01/05 11:53:40;;;;;;;;;;;;;;;17.83;49.15;101090.28;4966208;28;6808;-73
2023/01/05 11:56:23;;;;;;;;;;;;;;;17.80;48.53;101089.31;4958536;28;6984;-73
2023/01/05 11:58:59;;;;;;;;;;;;;;;17.78;48.82;101081.53;4957464;28;6860;-73
2023/01/05 12:01:55;;;;;;;;;;;;;;;17.80;48.59;101077.25;4977360;28;6860;-74
2023/01/05 12:04:52;;;;;;;;;;;;;;;18.00;48.77;101066.56;4936604;28;7072;-73
2023/01/05 12:07:32;;;;;;;;;;;;;;;18.23;49.24;101075.03;4958384;28;7139;-73
2023/01/05 12:10:16;;;;;;;;;;;;;;;18.58;47.98;101072.47;4963524;28;7305;-73
2023/01/05 12:13:23;;;;;;;;;;;;;;;18.85;47.98;101065.34;4986497;28;7910;-73
2023/01/05 12:16:23;;;;;;;;;;;;;;;18.78;47.51;101063.44;4963858;28;6796;-73
2023/01/05 12:19:05;;;;;;;;;;;;;;;18.59;47.60;101068.16;4981240;28;6881;-73
2023/01/05 12:21:40;;;;;;;;;;;;;;;18.38;47.56;101063.28;4991392;28;6860;-73
2023/01/05 12:24:56;;;;;;;;;;;;;;;18.26;48.34;101066.44;4960696;28;6872;-73
2023/01/05 12:28:10;;;;;;;;;;;;;;;18.12;48.15;101061.75;4968151;28;7266;-72
2023/01/05 12:30:58;;;;;;;;;;;;;;;18.04;48.32;101071.91;4965374;28;7025;-73
2023/01/05 12:34:11;;;;;;;;;;;;;;;18.01;48.48;101069.22;4964538;28;6803;-72
2023/01/05 12:37:01;;;;;;;;;;;;;;;17.94;48.53;101072.47;4951097;28;6851;-72
2023/01/05 12:39:58;;;;;;;;;;;;;;;17.83;48.40;101059.19;4959099;28;6808;-72
2023/01/05 12:42:50;;;;;;;;;;;;;;;17.73;48.44;101068.44;4961772;28;7112;-72
2023/01/05 12:45:44;;;;;;;;;;;;;;;17.63;48.84;101066.41;4966906;28;7387;-73
2023/01/05 12:48:24;;;;;;;;;;;;;;;17.59;48.91;101070.59;4962008;28;6800;-72
2023/01/05 12:51:24;;;;;;;;;;;;;;;17.57;49.07;101066.22;4961645;28;6872;-73
2023/01/05 12:54:08;;;;;;;;;;;;;;;17.47;49.01;101065.03;4975201;28;7212;-73
2023/01/05 12:56:46;;;;;;;;;;;;;;;17.37;49.39;101063.00;4951919;28;7007;-73
2023/01/05 12:59:29;;;;;;;;;;;;;;;17.31;49.40;101061.09;4965712;28;7204;-73
2023/01/05 13:02:24;;;;;;;;;;;;;;;17.26;49.54;101073.06;4993054;28;7202;-72
2023/01/05 13:05:21;;;;;;;;;;;;;;;17.21;49.46;101070.31;4968456;28;6823;-73
2023/01/05 13:08:17;;;;;;;;;;;;;;;17.17;49.53;101063.25;4970114;28;8338;-73
2023/01/05 13:10:50;;;;;;;;;;;;;;;17.12;49.98;101060.53;4961137;28;6808;-72
2023/01/05 13:13:34;;;;;;;;;;;;;;;17.11;49.58;101065.69;4980960;28;6803;-73
2023/01/05 13:16:12;;;;;;;;;;;;;;;17.09;50.00;101060.44;4991753;28;6804;-72
2023/01/05 13:18:47;;;;;;;;;;;;;;;17.10;49.63;101062.19;4968198;28;7402;-73
2023/01/05 13:21:15;;;;;;;;;;;;;;;17.12;50.06;101067.44;4966313;28;6796;-73
2023/01/05 13:23:59;;;;;;;;;;;;;;;17.13;49.97;101064.00;4960967;28;6800;-72
2023/01/05 13:26:25;;;;;;;;;;;;;;;17.14;49.68;101058.00;4962834;28;6804;-73
2023/01/05 13:28:55;;;;;;;;;;;;;;;17.10;49.65;101053.56;4979841;28;7181;-73
2023/01/05 13:31:31;;;;;;;;;;;;;;;17.07;50.18;101059.53;4982876;28;6792;-73
2023/01/05 13:34:17;;;;;;;;;;;;;;;17.08;50.13;101056.97;4980082;28;7197;-72
2023/01/05 13:37:24;;;;;;;;;;;;;;;17.10;50.20;101056.16;4961264;28;7237;-73
2023/01/05 13:40:31;;;;;;;;;;;;;;;17.06;49.94;101058.63;4965740;28;7276;-72
2023/01/05 13:43:37;;;;;;;;;;;;;;;17.04;50.11;101055.13;4965197;28;6800;-73
2023/01/05 13:46:43;;;;;;;;;;;;;;;17.00;50.05;101060.13;4952245;28;7747;-73
2023/01/05 13:49:42;;;;;;;;;;;;;;;17.01;50.01;101044.66;4961463;28;6812;-73
2023/01/05 13:52:51;;;;;;;;;;;;;;;17.03;50.42;101058.53;4959090;28;7015;-73
2023/01/05 13:55:21;;;;;;;;;;;;;;;17.04;50.32;101051.63;4959613;28;7031;-73